createdAt,value
2022-09-06T00:00:27.200Z,101217.39
2022-09-06T00:02:57.395Z,101217.11
2022-09-06T00:05:24.447Z,101220.69
2022-09-06T00:07:51.532Z,101221.09
2022-09-06T00:10:18.850Z,101216.94
2022-09-06T00:12:47.247Z,101213.48
2022-09-06T00:15:14.267Z,101215.96
2022-09-06T00:17:41.310Z,101216.52
2022-09-06T00:20:08.709Z,101219.20
2022-09-06T00:22:37.373Z,101214.86
2022-09-06T00:25:06.529Z,101216.65
2022-09-06T00:27:34.368Z,101215.96
2022-09-06T00:30:04.028Z,101216.36
2022-09-06T00:32:31.934Z,101216.92
2022-09-06T00:34:59.054Z,101212.24
2022-09-06T00:37:26.083Z,101207.41
2022-09-06T00:39:53.113Z,101204.98
2022-09-06T00:42:20.301Z,101203.95
2022-09-06T00:44:48.833Z,101210.80
2022-09-06T00:47:16.265Z,101207.88
2022-09-06T00:49:51.588Z,101210.22
2022-09-06T00:52:19.930Z,101210.08
2022-09-06T00:54:48.710Z,101206.08
2022-09-06T00:57:17.612Z,101209.95
2022-09-06T00:59:46.950Z,101213.98
2022-09-06T01:02:14.992Z,101217.84
2022-09-06T01:04:44.853Z,101216.28
2022-09-06T01:07:33.215Z,101222.25
2022-09-06T01:10:26.081Z,101218.96
2022-09-06T01:13:00.797Z,101222.17
2022-09-06T01:16:20.272Z,101222.04
2022-09-06T01:19:25.365Z,101225.23
2022-09-06T01:22:04.260Z,101224.58
2022-09-06T01:25:19.828Z,101221.83
2022-09-06T01:28:39.091Z,101221.88
2022-09-06T01:31:27.314Z,101223.32
2022-09-06T01:34:02.997Z,101223.89
2022-09-06T01:36:54.417Z,101227.23
2022-09-06T01:39:33.155Z,101224.98
2022-09-06T01:42:34.997Z,101226.09
2022-09-06T01:45:17.865Z,101226.31
2022-09-06T01:48:29.680Z,101228.09
2022-09-06T01:51:23.715Z,101226.55
2022-09-06T01:54:11.658Z,101226.06
2022-09-06T01:57:08.445Z,101228.25
2022-09-06T01:59:47.421Z,101220.45
2022-09-06T02:02:35.662Z,101218.52
2022-09-06T02:05:11.617Z,101219.25
2022-09-06T02:07:41.945Z,101220.27
2022-09-06T02:10:26.641Z,101224.30
2022-09-06T02:12:59.149Z,101222.23
2022-09-06T02:15:32.689Z,101219.61
2022-09-06T02:18:08.545Z,101221.02
2022-09-06T02:20:43.240Z,101221.02
2022-09-06T02:23:11.681Z,101221.55
2022-09-06T02:25:52.438Z,101220.52
2022-09-06T02:28:19.769Z,101217.73
2022-09-06T02:30:52.949Z,101218.05
2022-09-06T02:33:24.346Z,101212.79
2022-09-06T02:35:54.656Z,101212.96
2022-09-06T02:38:25.996Z,101211.88
2022-09-06T02:40:56.215Z,101211.38
2022-09-06T02:43:23.272Z,101212.58
2022-09-06T02:45:50.456Z,101214.67
2022-09-06T02:48:17.849Z,101214.31
2022-09-06T02:50:44.960Z,101209.92
2022-09-06T02:53:14.514Z,101211.34
2022-09-06T02:55:42.051Z,101212.39
2022-09-06T02:58:11.222Z,101209.59
2022-09-06T03:00:38.724Z,101216.77
2022-09-06T03:03:05.967Z,101218.52
2022-09-06T03:05:33.485Z,101223.09
2022-09-06T03:08:01.067Z,101225.02
2022-09-06T03:10:28.218Z,101225.90
2022-09-06T03:12:55.538Z,101222.43
2022-09-06T03:15:22.623Z,101223.35
2022-09-06T03:17:49.871Z,101230.18
2022-09-06T03:20:17.187Z,101228.60
2022-09-06T03:22:44.302Z,101227.55
2022-09-06T03:25:11.422Z,101230.02
2022-09-06T03:27:38.496Z,101226.02
2022-09-06T03:30:06.966Z,101221.48
2022-09-06T03:32:34.175Z,101221.14
2022-09-06T03:35:01.898Z,101219.92
2022-09-06T03:37:29.030Z,101216.77
2022-09-06T13:51:20.338Z,100970.28
2022-09-06T13:53:49.819Z,100970.16
2022-09-06T13:56:18.193Z,100969.63
2022-09-06T13:58:46.707Z,100964.41
2022-09-06T14:01:15.375Z,100966.65
2022-09-06T14:03:45.169Z,100967.11
2022-09-06T14:06:13.702Z,100967.86
2022-09-06T14:09:05.954Z,100964.65
2022-09-06T14:11:32.108Z,100966.30
2022-09-06T14:14:00.714Z,100967.61
2022-09-06T14:16:30.141Z,100962.20
2022-09-06T14:18:58.914Z,100959.04
2022-09-06T14:21:27.562Z,100957.16
2022-09-06T14:23:58.880Z,100953.97
2022-09-06T14:26:31.427Z,100955.81
2022-09-06T14:29:00.047Z,100953.90
2022-09-06T14:31:29.247Z,100953.33
2022-09-06T14:33:58.708Z,100952.75
2022-09-06T14:36:29.790Z,100953.04
2022-09-06T14:39:00.386Z,100951.36
2022-09-06T14:41:29.350Z,100949.42
2022-09-06T14:43:59.123Z,100947.66
2022-09-06T14:46:28.547Z,100951.25
2022-09-06T14:49:10.107Z,100952.39
2022-09-06T14:51:40.082Z,100953.23
2022-09-06T14:54:14.786Z,100950.61
2022-09-06T14:56:43.947Z,100949.92
2022-09-06T14:59:12.939Z,100952.01
2022-09-06T15:01:41.750Z,100953.73
2022-09-06T15:04:12.275Z,100951.77
2022-09-06T15:06:45.001Z,100953.29
2022-09-06T15:09:17.742Z,100956.69
2022-09-06T15:11:51.854Z,100953.31
2022-09-06T15:14:23.239Z,100952.09
2022-09-06T15:16:55.820Z,100951.39
2022-09-06T15:19:27.073Z,100952.31
2022-09-06T15:21:57.428Z,100956.43
2022-09-06T15:24:26.432Z,100956.54
2022-09-06T15:26:55.294Z,100957.38
2022-09-06T15:29:24.132Z,100960.23
2022-09-06T15:31:53.914Z,100961.52
2022-09-06T15:34:25.489Z,100968.53
2022-09-06T15:36:54.613Z,100967.86
2022-09-06T15:39:23.199Z,100966.45
2022-09-06T15:41:51.996Z,100971.63
2022-09-06T15:44:21.879Z,100974.14
2022-09-06T15:46:59.387Z,100975.55
2022-09-06T15:49:31.938Z,100973.17
2022-09-06T15:52:03.400Z,100978.55
2022-09-06T15:54:50.768Z,100976.14
2022-09-06T15:57:19.462Z,100982.85
2022-09-06T15:59:48.001Z,100982.06
2022-09-06T16:02:16.957Z,100980.58
2022-09-06T16:04:46.847Z,100980.61
2022-09-06T16:07:15.425Z,100979.50
2022-09-06T16:09:43.898Z,100981.48
2022-09-06T16:12:12.409Z,100983.80
2022-09-06T16:14:41.108Z,100982.89
2022-09-06T16:17:09.706Z,100980.61
2022-09-06T16:19:38.280Z,100976.94
2022-09-06T16:22:06.759Z,100976.68
2022-09-06T16:24:35.270Z,100979.60
2022-09-06T16:27:04.073Z,100978.14
2022-09-06T16:29:33.184Z,100978.92
2022-09-06T16:32:01.628Z,100982.89
2022-09-06T16:34:30.181Z,100980.03
2022-09-06T16:36:58.721Z,100981.38
2022-09-06T16:39:27.245Z,100977.79
2022-09-06T16:41:55.795Z,100976.31
2022-09-06T16:44:24.258Z,100972.14
2022-09-06T16:46:53.840Z,100967.90
2022-09-06T16:49:23.564Z,100980.45
2022-09-06T16:51:52.511Z,100981.01
2022-09-06T16:54:21.138Z,100981.77
2022-09-06T16:56:50.748Z,100987.34
2022-09-06T16:59:19.244Z,100988.23
2022-09-06T17:01:48.194Z,100989.52
2022-09-06T17:04:16.915Z,100992.04
2022-09-06T17:06:47.104Z,100997.75
2022-09-06T17:09:19.569Z,101003.67
2022-09-06T17:11:50.376Z,101006.25
2022-09-06T17:14:19.229Z,101005.09
2022-09-06T17:17:05.960Z,101002.91
2022-09-06T17:19:41.435Z,101010.67
2022-09-06T17:22:13.176Z,101018.79
2022-09-06T17:24:42.734Z,101021.23
2022-09-06T17:27:11.493Z,101024.59
2022-09-06T17:29:40.288Z,101032.44
2022-09-06T17:32:10.631Z,101038.36
2022-09-06T17:34:40.628Z,101042.34
2022-09-06T17:37:09.289Z,101046.55
2022-09-06T17:39:38.906Z,101048.19
2022-09-06T17:42:08.522Z,101049.77
2022-09-06T17:44:37.725Z,101055.62
2022-09-06T17:47:12.834Z,101056.35
2022-09-06T17:49:43.288Z,101060.66
2022-09-06T17:52:12.542Z,101066.60
2022-09-06T17:54:41.086Z,101068.36
2022-09-06T17:57:09.609Z,101069.08
2022-09-06T17:59:38.714Z,101067.98
2022-09-06T18:02:08.499Z,101073.77
2022-09-06T18:04:37.408Z,101073.49
2022-09-06T18:07:06.133Z,101074.80
2022-09-06T18:09:34.695Z,101077.77
2022-09-06T18:12:04.109Z,101080.14
2022-09-06T18:14:32.724Z,101080.36
2022-09-06T18:17:01.276Z,101083.73
2022-09-06T18:19:30.117Z,101083.36
2022-09-06T18:21:58.577Z,101086.34
2022-09-06T18:24:27.272Z,101082.38
2022-09-06T18:26:55.757Z,101081.23
2022-09-06T18:29:24.339Z,101084.66
2022-09-06T18:31:54.276Z,101082.70
2022-09-06T18:34:23.069Z,101083.91
2022-09-06T18:36:51.572Z,101084.08
2022-09-06T18:39:20.618Z,101084.59
2022-09-06T18:42:01.152Z,101079.03
2022-09-06T18:44:33.211Z,101083.44
2022-09-06T18:47:05.935Z,101082.10
2022-09-06T18:49:36.512Z,101082.66
2022-09-06T18:52:07.094Z,101086.88
2022-09-06T18:54:35.875Z,101085.87
2022-09-06T18:57:04.386Z,101084.44
2022-09-06T18:59:32.897Z,101077.98
2022-09-06T19:02:01.572Z,101075.11
2022-09-06T19:04:31.202Z,101076.44
2022-09-06T19:07:03.992Z,101075.05
2022-09-06T19:09:32.978Z,101074.38
2022-09-06T19:12:01.984Z,101069.52
2022-09-06T19:14:30.423Z,101071.62
2022-09-06T19:16:58.939Z,101072.14
2022-09-06T19:19:27.492Z,101072.33
2022-09-06T19:21:55.901Z,101071.41
2022-09-06T19:24:25.715Z,101072.19
2022-09-06T19:26:55.346Z,101070.73
2022-09-06T19:29:24.150Z,101066.04
2022-09-06T19:31:53.124Z,101064.52
2022-09-06T19:34:22.200Z,101061.81
2022-09-06T19:36:55.371Z,101060.91
2022-09-06T19:39:32.360Z,101057.27
2022-09-06T19:42:03.815Z,101056.86
2022-09-06T19:44:33.106Z,101058.42
2022-09-06T19:47:02.383Z,101054.89
2022-09-06T19:49:31.010Z,101055.09
2022-09-06T19:51:59.474Z,101055.64
2022-09-06T19:54:27.907Z,101057.42
2022-09-06T19:56:56.413Z,101054.17
2022-09-06T19:59:25.040Z,101053.72
2022-09-06T20:01:54.304Z,101055.22
2022-09-06T20:04:23.146Z,101053.23
2022-09-06T20:06:51.609Z,101056.62
2022-09-06T20:09:20.218Z,101060.39
2022-09-06T20:11:48.885Z,101062.55
2022-09-06T20:14:17.464Z,101064.29
2022-09-06T20:16:45.965Z,101064.77
2022-09-06T20:19:15.324Z,101063.98
2022-09-06T20:21:43.760Z,101068.29
2022-09-06T20:24:12.298Z,101072.08
2022-09-06T20:26:40.833Z,101076.34
2022-09-06T20:29:09.739Z,101070.54
2022-09-06T20:31:38.585Z,101069.02
2022-09-06T20:34:07.860Z,101070.33
2022-09-06T20:36:36.847Z,101069.52
2022-09-06T20:39:05.710Z,101068.33
2022-09-06T20:41:34.309Z,101065.86
2022-09-06T20:44:03.910Z,101060.73
2022-09-06T20:46:36.140Z,101063.80
2022-09-06T20:49:05.412Z,101070.52
2022-09-06T20:51:36.549Z,101081.42
2022-09-06T20:54:06.169Z,101085.00
2022-09-06T20:56:39.101Z,101083.71
2022-09-06T20:59:11.136Z,101087.89
2022-09-06T21:01:45.925Z,101085.55
2022-09-06T21:04:16.773Z,101081.31
2022-09-06T21:06:46.728Z,101076.81
2022-09-06T21:09:15.704Z,101081.02
2022-09-06T21:11:45.558Z,101086.30
2022-09-06T21:14:14.341Z,101096.85
2022-09-06T21:16:45.295Z,101096.96
2022-09-06T21:19:13.902Z,101088.94
2022-09-06T21:21:43.258Z,101088.15
2022-09-06T21:24:12.181Z,101084.98
2022-09-06T21:26:43.686Z,101087.48
2022-09-06T21:29:12.405Z,101090.60
2022-09-06T21:31:41.450Z,101092.27
2022-09-06T21:34:16.318Z,101094.67
2022-09-06T21:36:45.658Z,101089.08
2022-09-06T21:39:14.933Z,101089.29
2022-09-06T21:41:44.410Z,101088.55
2022-09-06T21:44:13.398Z,101090.06
2022-09-06T21:46:42.431Z,101093.03
2022-09-06T21:49:13.782Z,101095.14
2022-09-06T21:51:43.049Z,101093.75
2022-09-06T21:54:11.500Z,101092.61
2022-09-06T21:56:41.219Z,101096.30
2022-09-06T21:59:11.230Z,101097.74
2022-09-06T22:01:43.174Z,101096.89
2022-09-06T22:04:14.325Z,101102.08
2022-09-06T22:06:42.820Z,101101.77
2022-09-06T22:09:13.033Z,101099.55
2022-09-06T22:11:44.159Z,101102.40
2022-09-06T22:14:15.009Z,101101.76
2022-09-06T22:16:43.915Z,101102.89
2022-09-06T22:19:12.583Z,101105.04
2022-09-06T22:21:40.926Z,101105.30
2022-09-06T22:24:12.292Z,101106.11
2022-09-06T22:26:41.951Z,101108.89
2022-09-06T22:29:13.684Z,101108.31
2022-09-06T22:31:42.372Z,101109.70
2022-09-06T22:34:11.372Z,101108.80
2022-09-06T22:36:40.442Z,101107.92
2022-09-06T22:39:09.677Z,101110.77
2022-09-06T22:41:38.296Z,101109.77
2022-09-06T22:44:07.399Z,101111.55
2022-09-06T22:46:37.927Z,101108.73
2022-09-06T22:49:06.769Z,101108.66
2022-09-06T22:51:35.225Z,101110.33
2022-09-06T22:54:04.785Z,101108.80
2022-09-06T22:56:33.706Z,101109.06
2022-09-06T22:59:02.593Z,101109.10
2022-09-06T23:01:32.977Z,101104.75
2022-09-06T23:04:01.382Z,101107.66
2022-09-06T23:06:29.907Z,101108.52
2022-09-06T23:08:59.256Z,101108.31
2022-09-06T23:11:28.054Z,101107.56
2022-09-06T23:14:01.115Z,101108.26
2022-09-06T23:16:29.678Z,101109.11
2022-09-06T23:18:58.196Z,101102.56
2022-09-06T23:21:27.159Z,101101.33
2022-09-06T23:23:57.299Z,101094.30
2022-09-06T23:26:31.930Z,101094.48
2022-09-06T23:29:00.463Z,101094.70
2022-09-06T23:31:32.607Z,101091.86
2022-09-06T23:34:02.522Z,101095.77
2022-09-06T23:36:32.026Z,101093.23
2022-09-06T23:39:02.574Z,101094.02
2022-09-06T23:41:31.230Z,101096.24
2022-09-06T23:44:00.135Z,101097.98
2022-09-06T23:46:28.643Z,101100.10
2022-09-06T23:48:57.120Z,101092.11
2022-09-06T23:51:25.804Z,101095.20
2022-09-06T23:53:54.515Z,101090.27
2022-09-06T23:56:22.918Z,101088.83
2022-09-06T23:58:51.299Z,101085.45
